Logo AVAMET
Benvolgut visitant, si us plau, ingressa Recuperar contrasenya

Borriana Platja del Grau

Dades diàries. Acumulats / Últims 30 dies disponibles

Data Temperatura (°C) Humitat rel. (%) Pressió rel. (hPa) Vent (km/h) Precipitació
Mínima Mitjana Màxima Amplitud
tèrmica
Mínima Mitjana Màxima Mínima Mitjana Màxima Predom. Mitjana Ràfega
màxima
Total
(mm)
Índex-n
Mínima Mitjana Màxima Mínima Mitjana Màxima n
0 a 1
P0 max
mm 5'
Dades mensuals acumulades fins l'últim dia disponible
12/2019 8,1 9,6 11,1 12,3 12,7 15,2 19,1 11,0 40 82 97 1.008 1.021 1.029   13,6 79,6 68,0
Dades anuals acumulades fins l'últim dia disponible
2019 3,7 14,2 24,2 17,6 8,7 20,8 30,8 27,1 17 73 97 993 1.019 1.037   13,5 111,0 219,2
Últims 30 dies disponibles
10-12-2019 8,3     12,3     17,1 8,8 44 67 85 1.025 1.027 1.029 OSO 11,7 40,7 0,0
09-12-2019 11,1     14,7     19,1 8,0 40 66 90 1.024 1.026 1.029 SSO 12,0 43,4 0,0
08-12-2019 8,7     11,8     15,3 6,6 76 84 91 1.023 1.025 1.027 OSO 10,3 24,1 0,0
07-12-2019 8,1     11,5     14,9 6,8 75 86 93 1.026 1.026 1.028 SO 9,7 29,6 0,0
06-12-2019 10,5     12,7     14,8 4,3 83 91 95 1.025 1.026 1.028 SO 8,7 37,0 0,2
05-12-2019 10,8     11,8     13,4 2,6 87 94 97 1.013 1.020 1.025 ONO 11,7 51,8 29,6 0,42 1,60
04-12-2019 9,4     10,9     13,7 4,3 80 93 96 1.008 1.010 1.015 ONO 25,7 79,6 35,6 0,42 0,90
03-12-2019 8,9     10,8     12,7 3,8 66 77 91 1.015 1.019 1.021 ONO 15,0 51,8 2,6
02-12-2019 9,4     12,8     14,7 5,3 68 76 84 1.016 1.019 1.021 SO 18,4 48,3 0,0
01-12-2019 10,6     13,9     16,2 5,6 74 81 93 1.013 1.015 1.016 S 12,4 38,9 0,0
30-11-2019 11,8     14,6     17,1 5,3 71 82 92 1.016 1.020 1.023 SO 10,3 29,6 0,0
29-11-2019 14,1     17,0     19,2 5,1 62 73 85 1.017 1.020 1.023 SSO 9,7 48,1 0,0
28-11-2019 12,7     16,6     21,9 9,2 45 63 74 1.015 1.016 1.019 SSO 17,6 48,3 0,0
27-11-2019 16,7     18,9     23,1 6,4 42 60 78 1.009 1.012 1.015 SSO 17,6 56,3 0,0
26-11-2019 12,1     15,5     19,3 7,2 64 71 79 1.010 1.014 1.017 SO 11,3 40,7 0,0
25-11-2019 10,5     16,4     22,8 12,3 41 63 85 1.013 1.015 1.017 SO 10,8 50,0 0,0
24-11-2019 11,7     15,3     18,6 6,9 42 50 61 1.008 1.013 1.015 O 12,4 48,3 0,0
23-11-2019 13,1     15,4     17,4 4,3 40 56 83 993 1.000 1.008 OSO 20,5 68,5 0,0
22-11-2019 9,6     13,3     15,6 6,0 66 78 89 995 1.004 1.011 SO 9,9 45,0 0,8
21-11-2019 6,8     13,0     16,6 9,8 61 71 81 1.010 1.011 1.013 SSO 16,8 57,9 0,0
20-11-2019 8,2     11,4     15,1 6,9 60 68 75 1.012 1.015 1.018 SO 13,7 33,8 0,0
19-11-2019 6,9     10,4     14,3 7,4 48 61 73 1.017 1.019 1.021 SO 15,2 32,2 0,0
18-11-2019 8,4     12,1     16,1 7,7 42 61 81 1.010 1.014 1.019 O 12,2 31,5 0,0
17-11-2019 7,2     12,9     17,7 10,5 46 57 67 1.011 1.014 1.017 SO 13,5 55,5 0,0
16-11-2019 8,6     11,0     13,9 5,3 53 54 55 1.016 1.016 1.016 OSO 8,1 27,8 0,0
13-11-2019 10,4     14,3     18,5 8,1 54 72 91 1.007 1.009 1.012 SSO 7,8 38,9 1,4
12-11-2019 11,8     14,9     18,5 6,7 42 51 66 1.011 1.013 1.015 SO 9,0 38,9 0,0
11-11-2019 9,7     13,6     17,8 8,1 43 55 66 1.013 1.015 1.017 SO 11,4 59,5 0,0
10-11-2019 10,9     13,8     17,2 6,3 39 50 60 1.013 1.014 1.017 O 11,4 66,6 0,0
09-11-2019 13,3     15,7     18,8 5,5 39 50 66 1.015 1.018 1.021 OSO 13,9 55,5 0,0
Últims 13 mesos disponibles
11/2019 6,8 12,0 19,2 15,6 13,9 19,3 27,4 20,6 45 61 82 1.000 1.013 1.020 SO 13,3 80,4 2,2
10/2019 10,3 15,7 20,0 19,3 15,3 22,7 27,4 17,1 59 76 88 1.009 1.019 1.024 ESE 13,1 68,5 14,8
09/2019 14,5 19,6 22,4 22,7 24,0 25,7 30,8 16,3 58 79 88 1.012 1.020 1.028 ESE 14,7 93,3 61,0
08/2019 17,2 21,5 24,2 24,8 25,5 27,4 30,1 12,9 62 80 89 1.013 1.018 1.023 S 11,3 93,3 16,8
07/2019 20,4 21,8 23,4 25,1 26,1 27,4 29,4 9,0 61 77 87 1.008 1.017 1.024 S 12,4 64,8 15,4
06/2019 11,5 17,9 22,3 21,0 19,0 23,4 28,5 17,0 62 76 88 1.010 1.019 1.025 S 12,6 69,2 0,0
05/2019 8,8 14,2 17,3 17,2 15,7 20,0 27,8 19,0 64 78 86 1.012 1.019 1.027 S 13,0 51,8 9,8
04/2019 8,5 11,4 15,3 14,5 14,7 17,6 22,8 14,3 51 73 95 1.002 1.016 1.028 SSO 17,1 77,7 21,8
03/2019 6,8 9,7 13,3 13,4 13,1 16,9 24,3 17,5 47 70 96 1.013 1.025 1.033 SSO 12,9 55,5 7,4
02/2019 4,1 7,5 11,7 11,3 8,7 14,7 19,6 15,5 31 72 85 996 1.027 1.037 SSO 12,9 111,0 0,0
01/2019 3,7 6,4 10,8 10,8 11,2 15,2 22,2 18,5 39 63 79 1.003 1.021 1.033 OSO 14,3 99,9 2,0
12/2018 5,7 9,0 12,8 12,5 9,6 16,1 21,3 15,6 52 76 86 1.022 1.029 1.033 OSO 10,9 45,0
11/2018 8,1 11,8 15,7 14,7 14,6 18,3 21,7 13,6 54 75 90 1.004 1.018 1.027 SO 13,0 61,1 68,0
Tots els anys disponibles
Temperatura (°C)
Humitat relativa (%)
Velocitat del vent i ràfega màxima (km/h)
Direcció del vent (°)
Pressió (hPa)
Precipitació (mm)
Nota sobre les dades: s'avisa a l'usuari de la provisionalitat i no oficialitat d'aquestes dades
Logo AVAMET blanc
Web allotjada a Sollutia
Llicència de Creative CommonsLa web d'AVAMET i els seus continguts estan subjectes a una llicència de
Reconeixement - No Comercial - Compartir igual
Últimes estacions: Aielo de Malferit - Centre (Soci), Faura (Inforatge), Benifairó de les Valls (Inforatge), Xàbia - Les Valls (Soci), Xàbia - Alt de la Granadella (Soci), Villena - Sierra de Salinas (Soci), Sueca - Centre (Inforatge) - - -